createdAt,value
2023-05-08T00:01:21.026Z,97509.81
2023-05-08T00:03:47.952Z,97523.28
2023-05-08T00:06:14.624Z,97517.56
2023-05-08T00:08:42.080Z,97525.69
2023-05-08T00:11:08.933Z,97523.97
2023-05-08T00:13:35.657Z,97523.59
2023-05-08T00:16:02.350Z,97514.19
2023-05-08T00:18:29.034Z,97519.28
2023-05-08T00:20:55.875Z,97521.50
2023-05-08T00:23:22.630Z,97515.94
2023-05-08T00:25:49.344Z,97520.59
2023-05-08T00:28:15.966Z,97511.41
2023-05-08T00:30:42.774Z,97518.56
2023-05-08T00:33:09.824Z,97527.31
2023-05-08T00:35:36.602Z,97520.16
2023-05-08T00:38:03.360Z,97516.06
2023-05-08T00:40:30.073Z,97512.78
2023-05-08T00:42:56.819Z,97527.91
2023-05-08T00:45:23.446Z,97526.63
2023-05-08T00:47:50.775Z,97533.56
2023-05-08T00:50:18.265Z,97535.56
2023-05-08T00:52:44.954Z,97530.66
2023-05-08T00:55:11.580Z,97527.72
2023-05-08T00:57:38.650Z,97519.53
2023-05-08T01:00:06.055Z,97527.84
2023-05-08T01:02:32.913Z,97527.28
2023-05-08T01:05:00.202Z,97529.47
2023-05-08T01:07:27.834Z,97523.94
2023-05-08T01:09:54.467Z,97534.50
2023-05-08T01:12:45.160Z,97538.44
2023-05-08T01:15:16.898Z,97540.44
2023-05-08T01:17:58.029Z,97532.88
2023-05-08T01:20:45.878Z,97535.22
2023-05-08T01:23:35.445Z,97539.88
2023-05-08T01:26:36.468Z,97540.63
2023-05-08T01:29:21.805Z,97536.34
2023-05-08T01:32:11.703Z,97535.91
2023-05-08T01:34:55.772Z,97537.09
2023-05-08T01:37:29.223Z,97540.88
2023-05-08T01:40:03.369Z,97537.91
2023-05-08T01:42:44.366Z,97538.44
2023-05-08T01:45:17.171Z,97544.72
2023-05-08T01:47:45.331Z,97537.34
2023-05-08T01:50:16.545Z,97536.91
2023-05-08T01:52:49.838Z,97539.09
2023-05-08T01:55:21.791Z,97550.13
2023-05-08T01:57:50.769Z,97549.28
2023-05-08T02:00:20.253Z,97546.84
2023-05-08T02:02:47.920Z,97556.41
2023-05-08T02:05:15.158Z,97541.63
2023-05-08T02:07:43.505Z,97538.97
2023-05-08T02:10:10.512Z,97550.84
2023-05-08T02:12:38.261Z,97551.00
2023-05-08T02:15:06.341Z,97556.13
2023-05-08T02:17:33.895Z,97559.22
2023-05-08T02:20:01.930Z,97553.50
2023-05-08T02:22:28.730Z,97557.97
2023-05-08T02:24:56.765Z,97557.47
2023-05-08T02:27:25.856Z,97563.06
2023-05-08T02:29:53.680Z,97555.00
2023-05-08T02:32:21.382Z,97565.13
2023-05-08T02:35:02.046Z,97551.00
2023-05-08T02:37:31.334Z,97565.50
2023-05-08T02:39:58.839Z,97558.56
2023-05-08T02:42:25.547Z,97553.47
2023-05-08T02:44:52.166Z,97565.59
2023-05-08T02:47:32.126Z,97566.78
2023-05-08T02:50:12.038Z,97562.13
2023-05-08T02:52:44.825Z,97560.03
2023-05-08T02:55:28.435Z,97559.22
2023-05-08T02:58:17.862Z,97566.78
2023-05-08T03:01:00.950Z,97555.94
2023-05-08T03:03:34.555Z,97557.75
2023-05-08T03:06:03.034Z,97556.81
2023-05-08T03:08:31.585Z,97557.81
2023-05-08T03:11:04.534Z,97560.28
2023-05-08T03:13:32.625Z,97553.44
2023-05-08T03:16:00.962Z,97555.06
2023-05-08T03:18:33.536Z,97558.34
2023-05-08T03:21:00.812Z,97563.38
2023-05-08T03:23:29.697Z,97550.88
2023-05-08T03:25:58.266Z,97554.81
2023-05-08T03:28:25.272Z,97559.91
2023-05-08T03:30:52.091Z,97559.53
2023-05-08T03:33:19.543Z,97552.16
2023-05-08T03:35:47.000Z,97557.63
2023-05-08T03:38:13.947Z,97566.19
2023-05-08T03:40:42.614Z,97561.09
2023-05-08T03:43:09.931Z,97559.31
2023-05-08T03:45:39.415Z,97562.13
2023-05-08T03:48:07.700Z,97558.88
2023-05-08T03:50:36.206Z,97563.31
2023-05-08T03:53:03.392Z,97570.06
2023-05-08T03:55:30.925Z,97572.25
2023-05-08T03:58:29.004Z,97567.78
2023-05-08T04:01:07.895Z,97570.59
2023-05-08T04:03:58.598Z,97559.59
2023-05-08T04:06:42.045Z,97564.41
2023-05-08T04:09:34.964Z,97572.78
2023-05-08T04:12:32.534Z,97565.56
2023-05-08T04:15:09.686Z,97563.44
2023-05-08T04:18:00.990Z,97555.34
2023-05-08T04:20:29.884Z,97555.34
2023-05-08T04:22:58.222Z,97567.03
2023-05-08T04:25:26.016Z,97565.31
2023-05-08T04:27:53.422Z,97550.53
2023-05-08T04:30:20.558Z,97564.50
2023-05-08T04:32:48.057Z,97560.75
2023-05-08T04:35:15.008Z,97550.38
2023-05-08T04:37:45.129Z,97560.41
2023-05-08T04:40:12.075Z,97551.66
2023-05-08T04:42:39.811Z,97557.22
2023-05-08T04:45:07.155Z,97556.03
2023-05-08T04:47:33.969Z,97553.59
2023-05-08T04:50:02.735Z,97561.44
2023-05-08T04:52:30.003Z,97555.69
2023-05-08T04:54:56.745Z,97560.13
2023-05-08T04:57:23.535Z,97570.19
2023-05-08T04:59:50.708Z,97574.56
2023-05-08T05:02:17.302Z,97570.09
2023-05-08T05:04:43.991Z,97576.03
2023-05-08T05:07:10.730Z,97567.66
2023-05-08T05:09:39.131Z,97574.56
2023-05-08T05:12:06.547Z,97576.84
2023-05-08T05:14:33.526Z,97574.56
2023-05-08T05:17:00.203Z,97593.78
2023-05-08T05:19:27.289Z,97570.09
2023-05-08T05:21:54.113Z,97589.88
2023-05-08T05:24:20.837Z,97596.28
2023-05-08T05:26:47.529Z,97584.41
2023-05-08T05:29:14.251Z,97582.06
2023-05-08T05:31:41.000Z,97583.72
2023-05-08T05:34:07.726Z,97601.75
2023-05-08T05:36:34.540Z,97596.94
2023-05-08T05:39:01.164Z,97598.56
2023-05-08T05:41:27.833Z,97596.47
2023-05-08T05:43:54.517Z,97607.63
2023-05-08T05:46:21.202Z,97597.41
2023-05-08T05:48:47.990Z,97603.78
2023-05-08T05:51:14.697Z,97608.53
2023-05-08T05:53:41.538Z,97606.25
2023-05-08T05:56:08.146Z,97611.81
2023-05-08T05:58:34.932Z,97605.25
2023-05-08T06:01:01.635Z,97609.09
2023-05-08T06:03:28.909Z,97602.44
2023-05-08T06:05:56.511Z,97610.47
2023-05-08T06:08:23.437Z,97617.41
2023-05-08T06:10:50.471Z,97622.31
2023-05-08T06:13:17.239Z,97609.53
2023-05-08T06:15:44.011Z,97605.34
2023-05-08T06:18:10.781Z,97618.03
2023-05-08T06:20:38.709Z,97611.28
2023-05-08T06:23:05.922Z,97630.31
2023-05-08T06:25:32.639Z,97628.97
2023-05-08T06:27:59.385Z,97625.31
2023-05-08T06:30:26.322Z,97614.75
2023-05-08T06:32:53.142Z,97627.63
2023-05-08T06:35:20.090Z,97624.88
2023-05-08T06:37:47.031Z,97610.53
2023-05-08T06:40:14.129Z,97618.75
2023-05-08T06:42:41.433Z,97624.69
2023-05-08T06:45:11.397Z,97626.44
2023-05-08T06:47:38.692Z,97621.59
2023-05-08T06:50:05.982Z,97632.53
2023-05-08T06:52:32.936Z,97631.16
2023-05-08T06:54:59.651Z,97629.22
2023-05-08T06:57:29.287Z,97621.28
2023-05-08T06:59:56.829Z,97631.13
2023-05-08T07:02:23.699Z,97620.59
2023-05-08T07:04:50.450Z,97614.19
2023-05-08T07:07:17.134Z,97629.63
2023-05-08T07:09:43.809Z,97624.78
2023-05-08T07:12:10.656Z,97622.13
2023-05-08T07:14:37.305Z,97640.16
2023-05-08T07:17:07.964Z,97630.22
2023-05-08T07:19:38.248Z,97641.50
2023-05-08T07:22:05.608Z,97633.53
2023-05-08T07:24:32.925Z,97644.00
2023-05-08T07:26:59.845Z,97646.09
2023-05-08T07:29:27.119Z,97648.56
2023-05-08T07:31:54.073Z,97643.50
2023-05-08T07:34:20.911Z,97646.53
2023-05-08T07:36:47.618Z,97648.19
2023-05-08T07:39:14.251Z,97655.13
2023-05-08T07:41:41.223Z,97650.84
2023-05-08T07:44:08.486Z,97650.84
2023-05-08T07:46:35.232Z,97645.91
2023-05-08T07:49:02.068Z,97646.34
2023-05-08T07:51:29.091Z,97648.81
2023-05-08T07:53:56.231Z,97641.50
2023-05-08T07:56:23.211Z,97652.97
2023-05-08T07:58:50.119Z,97648.94
2023-05-08T08:01:18.270Z,97653.50
2023-05-08T08:03:46.480Z,97645.16
2023-05-08T08:06:13.477Z,97640.31
2023-05-08T08:08:40.602Z,97638.88
2023-05-08T08:11:07.859Z,97636.91
2023-05-08T08:13:34.641Z,97639.44
2023-05-08T08:16:04.067Z,97656.22
2023-05-08T08:18:33.859Z,97641.91
2023-05-08T08:21:00.487Z,97638.97
2023-05-08T08:23:27.465Z,97636.94
2023-05-08T08:25:54.446Z,97654.44
2023-05-08T08:28:21.250Z,97663.81
2023-05-08T08:30:48.211Z,97656.03
2023-05-08T08:33:16.853Z,97659.28
2023-05-08T08:35:45.233Z,97649.81
2023-05-08T08:38:12.056Z,97652.72
2023-05-08T08:40:40.596Z,97652.84
2023-05-08T08:43:07.935Z,97655.88
2023-05-08T08:45:34.603Z,97645.91
2023-05-08T08:48:03.630Z,97643.19
2023-05-08T08:50:33.658Z,97650.22
2023-05-08T08:53:12.478Z,97655.78
2023-05-08T08:55:40.871Z,97662.53
2023-05-08T08:58:29.385Z,97666.81
2023-05-08T09:00:56.295Z,97661.16
2023-05-08T09:03:23.248Z,97646.06
2023-05-08T09:05:50.127Z,97649.81
2023-05-08T09:08:18.967Z,97648.25
2023-05-08T09:10:47.377Z,97647.28
2023-05-08T09:13:14.254Z,97653.06
2023-05-08T09:15:41.326Z,97653.47
2023-05-08T09:18:08.451Z,97660.09
2023-05-08T09:20:35.946Z,97672.16
2023-05-08T09:23:05.559Z,97660.09
2023-05-08T09:25:44.735Z,97663.94
2023-05-08T09:28:25.632Z,97659.16
2023-05-08T09:30:57.345Z,97664.97
2023-05-08T09:33:28.709Z,97651.63
2023-05-08T09:35:56.847Z,97663.53
2023-05-08T09:38:37.430Z,97666.88
2023-05-08T09:41:11.535Z,97672.72
2023-05-08T09:43:39.430Z,97660.09
2023-05-08T09:46:26.627Z,97674.06
2023-05-08T09:48:55.445Z,97668.78
2023-05-08T09:51:22.958Z,97662.00
2023-05-08T09:53:53.868Z,97659.94
2023-05-08T09:56:37.883Z,97665.41
2023-05-08T09:59:22.069Z,97656.56
2023-05-08T10:01:49.083Z,97657.56
2023-05-08T10:04:15.954Z,97656.38
2023-05-08T10:06:43.267Z,97656.41
2023-05-08T10:09:12.395Z,97650.47
2023-05-08T10:11:40.857Z,97658.22
2023-05-08T10:14:08.155Z,97645.97
2023-05-08T10:16:45.571Z,97640.56
2023-05-08T10:19:16.828Z,97653.50
2023-05-08T10:21:46.866Z,97657.66
2023-05-08T10:24:16.778Z,97640.25
2023-05-08T10:27:10.797Z,97648.97
2023-05-08T10:29:43.149Z,97649.13
2023-05-08T10:32:11.003Z,97653.63
2023-05-08T10:34:40.780Z,97651.31
2023-05-08T10:37:11.066Z,97650.53
2023-05-08T10:39:37.774Z,97653.03
2023-05-08T10:42:04.804Z,97644.09
2023-05-08T10:44:32.092Z,97648.84
2023-05-08T10:47:08.110Z,97642.34
2023-05-08T10:50:12.618Z,97656.09
2023-05-08T10:52:43.653Z,97643.63
2023-05-08T10:55:30.873Z,97652.81
2023-05-08T10:58:10.051Z,97646.69
2023-05-08T11:00:51.997Z,97654.44
2023-05-08T11:03:32.807Z,97637.09
2023-05-08T11:06:01.163Z,97649.56
2023-05-08T11:08:30.070Z,97636.81
2023-05-08T11:10:59.833Z,97652.34
2023-05-08T11:13:33.960Z,97646.13
2023-05-08T11:16:01.001Z,97649.72
2023-05-08T11:18:41.912Z,97647.63
2023-05-08T11:21:22.133Z,97659.69
2023-05-08T11:23:57.071Z,97646.66
2023-05-08T11:26:39.468Z,97640.97
2023-05-08T11:29:16.556Z,97652.41
2023-05-08T11:31:50.659Z,97653.84
2023-05-08T11:34:56.807Z,97647.16
2023-05-08T11:37:24.497Z,97644.53
2023-05-08T11:39:51.672Z,97644.06
2023-05-08T11:42:27.613Z,97655.25
2023-05-08T11:45:08.867Z,97642.13
2023-05-08T11:47:41.520Z,97650.75
2023-05-08T11:50:09.578Z,97647.88
2023-05-08T11:52:37.116Z,97647.84
2023-05-08T11:55:08.934Z,97649.09
2023-05-08T11:57:36.135Z,97642.53
2023-05-08T12:00:07.489Z,97651.50
2023-05-08T12:02:41.964Z,97649.03
2023-05-08T12:05:09.909Z,97642.50
2023-05-08T12:07:47.036Z,97641.88
2023-05-08T12:10:17.725Z,97655.59
2023-05-08T12:12:45.666Z,97651.53
2023-05-08T12:15:14.766Z,97650.94
2023-05-08T12:17:42.686Z,97645.03
2023-05-08T12:20:28.079Z,97650.16
2023-05-08T12:22:54.924Z,97642.97
2023-05-08T12:25:21.658Z,97632.72
2023-05-08T12:27:48.479Z,97637.03
2023-05-08T12:30:16.510Z,97635.91
2023-05-08T12:32:44.144Z,97626.66
2023-05-08T12:35:14.425Z,97630.03
2023-05-08T12:37:41.412Z,97624.59
2023-05-08T12:40:22.120Z,97627.91
2023-05-08T12:42:50.244Z,97633.09
2023-05-08T12:45:28.412Z,97613.84
2023-05-08T12:48:00.099Z,97632.66
2023-05-08T12:50:27.104Z,97630.69
2023-05-08T12:52:54.087Z,97622.81
2023-05-08T12:55:28.076Z,97625.72
2023-05-08T12:58:05.972Z,97628.84
2023-05-08T13:00:37.377Z,97612.53
2023-05-08T13:03:04.633Z,97617.28
2023-05-08T13:05:31.717Z,97609.88
2023-05-08T13:08:03.196Z,97606.28
2023-05-08T13:10:50.114Z,97605.28
2023-05-08T13:13:19.210Z,97615.00
2023-05-08T13:15:47.085Z,97617.03
2023-05-08T13:18:14.547Z,97629.78
2023-05-08T13:20:42.328Z,97608.78
2023-05-08T13:23:10.062Z,97613.13
2023-05-08T13:25:40.913Z,97623.63
2023-05-08T13:28:09.094Z,97614.34
2023-05-08T13:30:36.960Z,97609.84
2023-05-08T13:33:05.208Z,97604.00
2023-05-08T13:35:32.603Z,97609.72
2023-05-08T13:38:00.050Z,97605.69
2023-05-08T13:40:30.065Z,97606.72
2023-05-08T13:42:57.217Z,97601.72
2023-05-08T13:45:24.435Z,97599.88
2023-05-08T13:47:53.101Z,97603.09
2023-05-08T13:50:25.445Z,97590.09
2023-05-08T13:52:54.999Z,97581.56
2023-05-08T13:55:25.193Z,97598.81
2023-05-08T13:57:52.416Z,97592.91
2023-05-08T14:00:21.045Z,97572.94
2023-05-08T14:02:50.715Z,97590.50
2023-05-08T14:05:19.783Z,97583.19
2023-05-08T14:07:47.092Z,97590.78
2023-05-08T14:10:14.268Z,97579.81
2023-05-08T14:12:41.424Z,97595.41
2023-05-08T14:15:09.465Z,97575.63
2023-05-08T14:17:36.593Z,97588.09
2023-05-08T14:20:06.318Z,97589.59
2023-05-08T14:22:33.279Z,97564.94
2023-05-08T14:25:01.154Z,97566.00
2023-05-08T14:27:28.174Z,97560.41
2023-05-08T14:29:55.905Z,97567.84
2023-05-08T14:32:22.811Z,97567.16
2023-05-08T14:34:50.425Z,97568.50
2023-05-08T14:37:18.020Z,97586.22
2023-05-08T14:39:45.665Z,97561.53
2023-05-08T14:44:42.427Z,97568.38
2023-05-08T14:47:09.565Z,97572.69
2023-05-08T14:49:38.469Z,97559.66
2023-05-08T14:52:06.785Z,97560.06
2023-05-08T14:54:33.955Z,97554.59
2023-05-08T14:57:01.178Z,97559.53
2023-05-08T14:59:28.293Z,97565.31
2023-05-08T15:01:55.648Z,97557.69
2023-05-08T15:04:22.685Z,97565.66
2023-05-08T15:06:49.667Z,97568.59
2023-05-08T15:09:16.964Z,97553.72
2023-05-08T15:11:44.369Z,97554.25
2023-05-08T15:14:11.275Z,97553.56
2023-05-08T15:16:38.290Z,97554.66
2023-05-08T15:19:05.255Z,97549.56
2023-05-08T15:21:32.273Z,97559.06
2023-05-08T15:23:58.961Z,97561.75
2023-05-08T15:26:25.934Z,97549.78
2023-05-08T15:28:52.707Z,97544.69
2023-05-08T15:31:19.479Z,97544.13
2023-05-08T15:33:47.996Z,97560.72
2023-05-08T15:36:15.042Z,97551.78
2023-05-08T15:38:42.048Z,97540.16
2023-05-08T15:41:14.601Z,97552.16
2023-05-08T15:43:43.309Z,97550.25
2023-05-08T15:46:10.343Z,97547.47
2023-05-08T15:48:37.330Z,97546.56
2023-05-08T15:51:04.203Z,97555.53
2023-05-08T15:53:31.408Z,97544.25
2023-05-08T15:55:58.384Z,97563.66
2023-05-08T15:58:27.773Z,97560.75
2023-05-08T16:00:55.051Z,97548.53
2023-05-08T16:03:22.124Z,97538.97
2023-05-08T16:05:49.351Z,97543.06
2023-05-08T16:08:16.815Z,97558.75
2023-05-08T16:10:43.913Z,97549.75
2023-05-08T16:13:10.918Z,97559.69
2023-05-08T16:15:39.140Z,97571.09
2023-05-08T16:18:08.219Z,97550.84
2023-05-08T16:20:36.262Z,97559.25
2023-05-08T16:23:03.729Z,97554.56
2023-05-08T16:25:30.797Z,97567.69
2023-05-08T16:27:58.355Z,97548.13
2023-05-08T16:30:25.838Z,97543.50
2023-05-08T16:32:54.164Z,97538.19
2023-05-08T16:35:21.553Z,97533.97
2023-05-08T16:37:48.553Z,97535.38
2023-05-08T16:40:15.556Z,97534.22
2023-05-08T16:42:42.643Z,97540.56
2023-05-08T16:45:10.193Z,97524.53
2023-05-08T16:47:37.407Z,97525.59
2023-05-08T16:50:05.116Z,97525.59
2023-05-08T16:52:33.280Z,97522.47
2023-05-08T16:55:00.706Z,97537.69
2023-05-08T16:57:27.857Z,97529.13
2023-05-08T16:59:55.031Z,97517.00
2023-05-08T17:02:23.297Z,97528.53
2023-05-08T17:04:50.756Z,97516.97
2023-05-08T17:07:18.278Z,97513.66
2023-05-08T17:09:45.640Z,97513.41
2023-05-08T17:12:12.612Z,97519.16
2023-05-08T17:14:40.770Z,97510.63
2023-05-08T17:17:10.236Z,97513.69
2023-05-08T17:19:37.437Z,97519.75
2023-05-08T17:22:04.466Z,97516.63
2023-05-08T17:24:32.857Z,97520.19
2023-05-08T17:26:59.700Z,97531.59
2023-05-08T17:29:26.932Z,97519.66
2023-05-08T17:31:54.583Z,97539.28
2023-05-08T17:34:22.992Z,97520.13
2023-05-08T17:36:50.450Z,97532.50
2023-05-08T17:39:20.115Z,97525.69
2023-05-08T17:41:49.547Z,97519.66
2023-05-08T17:44:17.308Z,97529.09
2023-05-08T17:46:45.294Z,97516.41
2023-05-08T17:49:13.230Z,97527.09
2023-05-08T17:51:41.498Z,97529.56
2023-05-08T17:54:08.922Z,97525.28
2023-05-08T17:56:38.069Z,97514.06
2023-05-08T17:59:05.922Z,97514.31
2023-05-08T18:01:32.770Z,97513.47
2023-05-08T18:04:00.072Z,97514.09
2023-05-08T18:06:27.172Z,97537.63
2023-05-08T18:08:54.244Z,97519.81
2023-05-08T18:11:23.447Z,97525.75
2023-05-08T18:13:51.300Z,97523.72
2023-05-08T18:16:19.823Z,97530.06
2023-05-08T18:18:47.781Z,97522.72
2023-05-08T18:21:15.257Z,97521.88
2023-05-08T18:23:42.405Z,97522.28
2023-05-08T18:26:14.614Z,97525.38
2023-05-08T18:28:42.066Z,97537.66
2023-05-08T18:31:09.124Z,97537.47
2023-05-08T18:33:37.480Z,97527.63
2023-05-08T18:36:07.362Z,97529.28
2023-05-08T18:38:35.029Z,97545.84
2023-05-08T18:41:06.378Z,97547.09
2023-05-08T18:43:34.211Z,97550.09
2023-05-08T18:46:08.390Z,97538.22
2023-05-08T18:48:35.958Z,97539.44
2023-05-08T18:51:03.016Z,97533.31
2023-05-08T18:53:30.737Z,97533.69
2023-05-08T18:55:57.957Z,97533.69
2023-05-08T18:58:27.351Z,97556.78
2023-05-08T19:00:59.712Z,97548.34
2023-05-08T19:03:27.141Z,97533.44
2023-05-08T19:05:57.778Z,97547.09
2023-05-08T19:08:24.981Z,97545.44
2023-05-08T19:10:53.295Z,97526.63
2023-05-08T19:13:20.476Z,97536.22
2023-05-08T19:15:47.647Z,97539.63
2023-05-08T19:18:14.981Z,97531.06
2023-05-08T19:20:42.050Z,97537.78
2023-05-08T19:23:09.229Z,97549.84
2023-05-08T19:25:36.362Z,97530.44
2023-05-08T19:28:04.857Z,97547.38
2023-05-08T19:30:32.978Z,97519.97
2023-05-08T19:33:00.051Z,97529.94
2023-05-08T19:35:27.498Z,97543.03
2023-05-08T19:37:55.761Z,97534.38
2023-05-08T19:40:22.963Z,97533.47
2023-05-08T19:42:50.072Z,97536.09
2023-05-08T19:45:17.648Z,97539.31
2023-05-08T19:47:50.752Z,97535.81
2023-05-08T19:50:19.079Z,97538.47
2023-05-08T19:52:49.381Z,97533.47
2023-05-08T19:55:19.961Z,97539.13
2023-05-08T19:57:47.209Z,97533.66
2023-05-08T20:00:14.590Z,97550.31
2023-05-08T20:02:42.034Z,97536.84
2023-05-08T20:07:39.241Z,97533.13
2023-05-08T20:10:06.982Z,97526.56
2023-05-08T20:12:33.860Z,97527.53
2023-05-08T20:15:00.927Z,97528.53
2023-05-08T20:17:27.984Z,97542.06
2023-05-08T20:19:55.274Z,97536.94
2023-05-08T20:22:22.321Z,97533.41
2023-05-08T20:24:49.309Z,97523.28
2023-05-08T20:27:16.654Z,97523.47
2023-05-08T20:29:43.728Z,97514.38
2023-05-08T20:32:15.014Z,97517.25
2023-05-08T20:34:42.289Z,97503.78
2023-05-08T20:37:09.273Z,97499.50
2023-05-08T20:39:36.040Z,97500.53
2023-05-08T20:42:03.161Z,97517.75
2023-05-08T20:44:30.258Z,97499.03
2023-05-08T20:46:57.487Z,97507.38
2023-05-08T20:49:24.899Z,97497.53
2023-05-08T20:51:53.780Z,97489.00
2023-05-08T20:54:22.194Z,97489.00
2023-05-08T20:56:49.417Z,97484.50
2023-05-08T20:59:16.932Z,97483.50
2023-05-08T21:01:43.855Z,97489.81
2023-05-08T21:04:10.991Z,97484.91
2023-05-08T21:06:38.033Z,97506.16
2023-05-08T21:09:07.050Z,97486.56
2023-05-08T21:11:36.485Z,97481.66
2023-05-08T21:14:03.518Z,97496.88
2023-05-08T21:16:30.996Z,97483.63
2023-05-08T21:19:00.179Z,97483.63
2023-05-08T21:21:27.196Z,97483.63
2023-05-08T21:23:54.064Z,97473.81
2023-05-08T21:26:24.134Z,97482.22
2023-05-08T21:28:52.651Z,97475.31
2023-05-08T21:31:19.928Z,97455.69
2023-05-08T21:33:47.671Z,97482.50
2023-05-08T21:36:14.512Z,97458.44
2023-05-08T21:38:41.848Z,97468.53
2023-05-08T21:41:09.100Z,97458.06
2023-05-08T21:43:36.390Z,97450.97
2023-05-08T21:46:07.733Z,97454.25
2023-05-08T21:48:35.173Z,97459.25
2023-05-08T21:51:02.165Z,97445.97
2023-05-08T21:53:29.508Z,97433.75
2023-05-08T21:55:56.469Z,97435.88
2023-05-08T21:58:23.474Z,97429.38
2023-05-08T22:00:50.365Z,97431.81
2023-05-08T22:03:17.635Z,97422.47
2023-05-08T22:05:44.905Z,97416.72
2023-05-08T22:08:12.077Z,97440.22
2023-05-08T22:10:39.749Z,97439.63
2023-05-08T22:13:07.734Z,97425.88
2023-05-08T22:15:35.287Z,97438.94
2023-05-08T22:18:03.067Z,97425.69
2023-05-08T22:20:29.953Z,97437.91
2023-05-08T22:22:57.014Z,97428.84
2023-05-08T22:25:25.395Z,97423.34
2023-05-08T22:27:52.606Z,97441.69
2023-05-08T22:30:19.497Z,97427.34
2023-05-08T22:32:53.435Z,97436.91
2023-05-08T22:35:22.435Z,97429.47
2023-05-08T22:37:49.420Z,97420.06
2023-05-08T22:40:16.606Z,97431.84
2023-05-08T22:42:44.406Z,97424.09
2023-05-08T22:45:12.233Z,97417.16
2023-05-08T22:47:39.502Z,97426.59
2023-05-08T22:50:08.782Z,97431.72
2023-05-08T22:52:43.340Z,97436.41
2023-05-08T22:55:10.549Z,97433.56
2023-05-08T22:57:37.741Z,97426.19
2023-05-08T23:00:06.652Z,97410.44
2023-05-08T23:02:34.356Z,97412.53
2023-05-08T23:05:02.420Z,97428.69
2023-05-08T23:07:31.625Z,97405.44
2023-05-08T23:09:58.748Z,97410.34
2023-05-08T23:12:25.764Z,97427.75
2023-05-08T23:14:52.697Z,97403.47
2023-05-08T23:17:19.819Z,97425.09
2023-05-08T23:19:46.884Z,97413.09
2023-05-08T23:22:13.943Z,97396.53
2023-05-08T23:24:40.884Z,97398.09
2023-05-08T23:27:08.106Z,97395.44
2023-05-08T23:29:35.092Z,97401.94
2023-05-08T23:32:02.439Z,97409.84
2023-05-08T23:34:29.582Z,97393.25
2023-05-08T23:36:56.413Z,97384.50
2023-05-08T23:39:23.214Z,97371.06
2023-05-08T23:41:50.367Z,97381.00
2023-05-08T23:44:17.888Z,97377.41
2023-05-08T23:46:45.230Z,97374.69
2023-05-08T23:49:12.629Z,97369.53
2023-05-08T23:51:39.710Z,97377.03
2023-05-08T23:54:07.016Z,97369.81
2023-05-08T23:56:34.242Z,97365.41
2023-05-08T23:59:01.242Z,97362.47
